Time;durP1;ratioP1;P1;durP2;ratioP2;P2;SDS_P1;SDS_P2;PMS_P1;PMS_P2;Temp;Humidity;BMP_temperature;BMP_pressure;BME280_temperature;BME280_humidity;BME280_pressure;Samples;Min_cycle;Max_cycle;Signal;HPM_P1;HPM_P2
2023/01/22 00:02:08;;;;;;;11.07;7.13;;;;;;;;;;4952757;29;20446;-72
2023/01/22 00:04:36;;;;;;;10.48;6.72;;;;;;;;;;4935832;29;20063;-72
2023/01/22 00:07:03;;;;;;;16.60;7.75;;;;;;;;;;4948917;29;20106;-72
2023/01/22 00:09:32;;;;;;;10.50;6.82;;;;;;;;;;4947337;29;20514;-73
2023/01/22 00:11:59;;;;;;;12.40;7.97;;;;;;;;;;4933781;29;20059;-73
2023/01/22 00:14:26;;;;;;;10.65;7.15;;;;;;;;;;4953022;29;20051;-73
2023/01/22 00:16:54;;;;;;;11.93;7.13;;;;;;;;;;4947673;29;20051;-73
2023/01/22 00:19:21;;;;;;;11.75;7.00;;;;;;;;;;4963674;28;20062;-73
2023/01/22 00:21:48;;;;;;;44.15;16.80;;;;;;;;;;4971271;28;20054;-73
2023/01/22 00:24:15;;;;;;;27.45;12.00;;;;;;;;;;4969001;28;20043;-72
2023/01/22 00:26:44;;;;;;;15.43;7.95;;;;;;;;;;4968605;28;20055;-73
2023/01/22 00:29:12;;;;;;;12.18;7.20;;;;;;;;;;4968684;28;20474;-72
2023/01/22 00:31:39;;;;;;;10.27;6.68;;;;;;;;;;4967968;28;20051;-73
2023/01/22 00:34:06;;;;;;;11.82;6.30;;;;;;;;;;4968073;28;20054;-72
2023/01/22 00:36:33;;;;;;;12.10;6.53;;;;;;;;;;4978204;28;20076;-73
2023/01/22 00:39:01;;;;;;;14.88;7.03;;;;;;;;;;4970778;28;20158;-72
2023/01/22 00:41:28;;;;;;;12.20;6.80;;;;;;;;;;4962792;28;20133;-72
2023/01/22 00:43:57;;;;;;;12.57;8.32;;;;;;;;;;4965814;28;20043;-72
2023/01/22 00:46:24;;;;;;;12.13;7.85;;;;;;;;;;4965292;28;20047;-72
2023/01/22 00:48:51;;;;;;;11.25;6.28;;;;;;;;;;4969207;28;20058;-73
2023/01/22 00:51:19;;;;;;;8.98;5.88;;;;;;;;;;4960842;28;20058;-72
2023/01/22 00:53:46;;;;;;;11.63;6.97;;;;;;;;;;4971047;28;20442;-72
2023/01/22 00:56:14;;;;;;;11.57;6.65;;;;;;;;;;4967465;28;20046;-73
2023/01/22 00:58:42;;;;;;;14.10;7.40;;;;;;;;;;4964465;28;20051;-73
2023/01/22 01:01:10;;;;;;;15.07;7.18;;;;;;;;;;4959173;28;20051;-73
2023/01/22 01:03:38;;;;;;;12.60;6.80;;;;;;;;;;4961154;28;20062;-73
2023/01/22 01:06:06;;;;;;;10.55;5.47;;;;;;;;;;4969111;28;21882;-73
2023/01/22 01:08:34;;;;;;;8.23;5.75;;;;;;;;;;4968861;28;20059;-73
2023/01/22 01:11:03;;;;;;;8.23;5.55;;;;;;;;;;4967397;28;20055;-72
2023/01/22 01:13:31;;;;;;;10.02;5.15;;;;;;;;;;4983778;28;20055;-73
2023/01/22 01:16:02;;;;;;;9.07;6.00;;;;;;;;;;4968752;28;20397;-72
2023/01/22 01:18:31;;;;;;;6.10;4.47;;;;;;;;;;4968544;28;20067;-72
2023/01/22 01:20:59;;;;;;;12.23;5.20;;;;;;;;;;4966943;28;20055;-72
2023/01/22 01:23:27;;;;;;;8.05;5.45;;;;;;;;;;4968033;28;20133;-72
2023/01/22 01:25:54;;;;;;;8.93;6.00;;;;;;;;;;4968297;28;20043;-73
2023/01/22 01:28:23;;;;;;;10.73;5.70;;;;;;;;;;4969605;28;20061;-73
2023/01/22 01:30:50;;;;;;;9.18;5.97;;;;;;;;;;4964534;28;20135;-73
2023/01/22 01:33:18;;;;;;;10.27;5.90;;;;;;;;;;4968653;28;20081;-72
2023/01/22 01:35:46;;;;;;;13.20;6.40;;;;;;;;;;4966337;28;20556;-73
2023/01/22 01:38:13;;;;;;;13.25;6.15;;;;;;;;;;4967665;28;20497;-72
2023/01/22 01:40:44;;;;;;;8.30;5.35;;;;;;;;;;4966205;28;20058;-72
2023/01/22 01:43:17;;;;;;;10.23;6.15;;;;;;;;;;4967438;28;20057;-72
2023/01/22 01:45:44;;;;;;;;;;;;;;;;;;4968020;28;20470;-73
2023/01/22 01:48:18;;;;;;;12.13;5.97;;;;;;;;;;4965510;28;19926;-72
2023/01/22 01:50:48;;;;;;;9.00;5.63;;;;;;;;;;4968745;28;20051;-72
2023/01/22 01:53:15;;;;;;;9.65;6.35;;;;;;;;;;4967117;28;20046;-72
2023/01/22 01:55:42;;;;;;;9.23;6.57;;;;;;;;;;4964940;28;20426;-72
2023/01/22 01:58:13;;;;;;;12.43;6.97;;;;;;;;;;4969768;28;20049;-73
2023/01/22 02:00:41;;;;;;;12.02;6.57;;;;;;;;;;4967566;28;20074;-73
2023/01/22 02:03:09;;;;;;;12.65;5.50;;;;;;;;;;4964299;28;20051;-73
2023/01/22 02:05:38;;;;;;;11.88;6.45;;;;;;;;;;4969206;28;20055;-73
2023/01/22 02:08:07;;;;;;;11.98;5.50;;;;;;;;;;4966982;28;20065;-73
2023/01/22 02:10:34;;;;;;;8.48;5.60;;;;;;;;;;4959965;28;20047;-73
2023/01/22 02:13:03;;;;;;;10.82;6.38;;;;;;;;;;4964427;28;20055;-73
2023/01/22 02:15:31;;;;;;;14.55;6.82;;;;;;;;;;4965289;28;20047;-73
2023/01/22 02:17:58;;;;;;;13.68;7.07;;;;;;;;;;4970141;28;20047;-72
2023/01/22 02:20:25;;;;;;;11.07;6.30;;;;;;;;;;4969308;28;20093;-73
2023/01/22 02:22:54;;;;;;;9.70;6.22;;;;;;;;;;4960937;28;20387;-72
2023/01/22 02:25:22;;;;;;;9.82;6.00;;;;;;;;;;4972616;28;20450;-72
2023/01/22 02:27:49;;;;;;;14.95;6.70;;;;;;;;;;4967801;28;20050;-73
2023/01/22 02:30:16;;;;;;;9.55;5.15;;;;;;;;;;4966595;28;20055;-72
2023/01/22 02:32:44;;;;;;;10.65;6.43;;;;;;;;;;4966584;28;20051;-73
2023/01/22 02:35:11;;;;;;;12.25;6.07;;;;;;;;;;4966074;28;20054;-72
2023/01/22 02:37:38;;;;;;;10.45;6.68;;;;;;;;;;4970498;28;20054;-72
2023/01/22 02:40:07;;;;;;;11.05;6.65;;;;;;;;;;4967857;28;20043;-72
2023/01/22 02:42:35;;;;;;;14.55;6.30;;;;;;;;;;4966534;28;20051;-73
2023/01/22 02:45:02;;;;;;;11.45;6.40;;;;;;;;;;4964992;28;20117;-73
2023/01/22 02:47:29;;;;;;;12.20;6.35;;;;;;;;;;4968693;28;20058;-73
2023/01/22 02:49:56;;;;;;;12.90;6.10;;;;;;;;;;4968477;28;20074;-73
2023/01/22 02:52:24;;;;;;;11.60;5.75;;;;;;;;;;4968083;28;20057;-73
2023/01/22 02:54:51;;;;;;;11.85;6.15;;;;;;;;;;4967701;28;20514;-73
2023/01/22 02:57:19;;;;;;;11.65;5.50;;;;;;;;;;4964552;28;20055;-73
2023/01/22 02:59:47;;;;;;;10.38;5.68;;;;;;;;;;4968772;28;20046;-73
2023/01/22 03:02:14;;;;;;;12.88;5.68;;;;;;;;;;4968822;28;20062;-72
2023/01/22 03:04:41;;;;;;;10.75;5.97;;;;;;;;;;4971529;28;20046;-73
2023/01/22 03:07:08;;;;;;;11.02;5.22;;;;;;;;;;4969553;28;20050;-72
2023/01/22 03:09:36;;;;;;;11.32;5.22;;;;;;;;;;4968224;28;20054;-73
2023/01/22 03:12:03;;;;;;;13.23;4.68;;;;;;;;;;4973769;28;20498;-73
2023/01/22 03:22:46;;;;;;;9.57;3.88;;;;;;;;;;4968528;28;20049;-72
2023/01/22 03:25:13;;;;;;;8.60;4.50;;;;;;;;;;4970005;28;20050;-73
2023/01/22 03:28:07;;;;;;;9.05;4.30;;;;;;;;;;4970876;28;20409;-72
2023/01/22 03:30:29;;;;;;;9.70;4.10;;;;;;;;;;4968433;28;20410;-73
2023/01/22 03:32:56;;;;;;;11.75;4.85;;;;;;;;;;4969953;28;20051;-72
2023/01/22 03:35:24;;;;;;;10.45;4.72;;;;;;;;;;4968419;28;20078;-73
2023/01/22 03:37:51;;;;;;;11.52;5.25;;;;;;;;;;4969325;28;20062;-73
2023/01/22 03:40:18;;;;;;;11.15;4.85;;;;;;;;;;4972248;28;20058;-73
2023/01/22 03:42:45;;;;;;;11.82;4.65;;;;;;;;;;4970201;28;20442;-73
2023/01/22 03:45:12;;;;;;;9.15;4.40;;;;;;;;;;4970937;28;20054;-73
2023/01/22 03:47:41;;;;;;;9.13;4.70;;;;;;;;;;4969356;28;20069;-73
2023/01/22 03:50:09;;;;;;;11.07;5.05;;;;;;;;;;4967262;28;20510;-72
2023/01/22 03:52:36;;;;;;;10.10;4.75;;;;;;;;;;4968921;28;20055;-73
2023/01/22 03:55:03;;;;;;;10.32;4.13;;;;;;;;;;4966254;28;20066;-72
2023/01/22 03:57:31;;;;;;;8.02;3.97;;;;;;;;;;4966596;28;20059;-73
2023/01/22 04:00:00;;;;;;;8.85;3.85;;;;;;;;;;4956664;28;20051;-73
2023/01/22 04:02:28;;;;;;;11.68;4.10;;;;;;;;;;4960636;28;20518;-73
2023/01/22 04:04:56;;;;;;;14.05;4.40;;;;;;;;;;4966802;28;20058;-72
2023/01/22 04:07:24;;;;;;;8.85;4.65;;;;;;;;;;4987387;28;20154;-72
2023/01/22 04:09:51;;;;;;;8.27;3.72;;;;;;;;;;4971505;28;20055;-72
2023/01/22 04:12:18;;;;;;;7.60;4.25;;;;;;;;;;4970707;28;20069;-73
2023/01/22 04:14:45;;;;;;;9.05;3.75;;;;;;;;;;4966109;28;20118;-73
2023/01/22 04:17:13;;;;;;;12.00;3.90;;;;;;;;;;4965061;28;20116;-73
2023/01/22 04:19:40;;;;;;;8.68;4.07;;;;;;;;;;4955011;28;20387;-73
2023/01/22 04:22:08;;;;;;;5.82;3.05;;;;;;;;;;4935021;29;20542;-73
2023/01/22 04:24:36;;;;;;;12.20;3.63;;;;;;;;;;4934428;29;20051;-73
2023/01/22 04:27:03;;;;;;;9.23;3.75;;;;;;;;;;4943449;29;20122;-73
2023/01/22 04:29:30;;;;;;;10.77;3.35;;;;;;;;;;4929594;29;20051;-73
2023/01/22 04:31:57;;;;;;;8.48;3.45;;;;;;;;;;4945375;29;20047;-73
2023/01/22 04:34:25;;;;;;;12.77;4.93;;;;;;;;;;4940972;29;20522;-73
2023/01/22 04:36:52;;;;;;;6.68;3.78;;;;;;;;;;4934033;29;20059;-73
2023/01/22 04:39:21;;;;;;;10.60;4.43;;;;;;;;;;4952169;29;20487;-73
2023/01/22 04:41:48;;;;;;;10.82;4.05;;;;;;;;;;4936223;29;20569;-73
2023/01/22 04:44:15;;;;;;;6.22;3.83;;;;;;;;;;4933164;29;20048;-72
2023/01/22 04:46:42;;;;;;;8.07;4.22;;;;;;;;;;4948579;29;20054;-73
2023/01/22 04:49:10;;;;;;;9.23;4.50;;;;;;;;;;4935575;29;20101;-73
2023/01/22 04:51:37;;;;;;;8.32;4.38;;;;;;;;;;4931629;29;20522;-73
2023/01/22 04:54:04;;;;;;;12.65;4.50;;;;;;;;;;4935084;29;20059;-73
2023/01/22 04:56:32;;;;;;;16.35;4.78;;;;;;;;;;4929933;29;20514;-73
2023/01/22 04:59:01;;;;;;;8.35;3.80;;;;;;;;;;4934763;29;20047;-73
2023/01/22 05:01:28;;;;;;;10.48;3.97;;;;;;;;;;4940633;29;20051;-73
2023/01/22 05:03:55;;;;;;;8.73;3.50;;;;;;;;;;4932060;29;20058;-73
2023/01/22 05:06:23;;;;;;;7.97;3.75;;;;;;;;;;4951078;29;20727;-72
2023/01/22 05:08:50;;;;;;;9.57;4.38;;;;;;;;;;4952312;29;20051;-73
2023/01/22 05:11:17;;;;;;;12.50;3.85;;;;;;;;;;4949009;29;20058;-72
2023/01/22 05:13:44;;;;;;;10.18;3.80;;;;;;;;;;4937406;28;20055;-72
2023/01/22 05:16:13;;;;;;;12.82;4.38;;;;;;;;;;4934756;29;20572;-72
2023/01/22 05:18:40;;;;;;;8.68;3.97;;;;;;;;;;4943499;28;20082;-72
2023/01/22 05:21:07;;;;;;;8.35;4.22;;;;;;;;;;4962454;28;20082;-72
2023/01/22 05:23:35;;;;;;;10.60;4.70;;;;;;;;;;4967753;28;20515;-73
2023/01/22 05:26:02;;;;;;;7.82;3.75;;;;;;;;;;4962554;28;20050;-72
2023/01/22 05:28:29;;;;;;;17.83;4.47;;;;;;;;;;4967298;28;20528;-73
2023/01/22 05:30:56;;;;;;;6.53;3.80;;;;;;;;;;4962304;28;20066;-73
2023/01/22 05:33:25;;;;;;;6.35;3.75;;;;;;;;;;4964761;28;20529;-73
2023/01/22 05:35:58;;;;;;;13.98;4.45;;;;;;;;;;4967851;28;20065;-72
2023/01/22 05:38:26;;;;;;;9.70;4.57;;;;;;;;;;4967641;28;20059;-73
2023/01/22 05:40:53;;;;;;;9.85;4.18;;;;;;;;;;4967133;28;20050;-72
2023/01/22 05:43:20;;;;;;;11.32;4.45;;;;;;;;;;4968110;28;20058;-72
2023/01/22 05:45:47;;;;;;;9.73;4.63;;;;;;;;;;4968376;28;20406;-73
2023/01/22 05:48:15;;;;;;;8.80;4.60;;;;;;;;;;4964458;28;20055;-72
2023/01/22 05:50:43;;;;;;;7.60;3.95;;;;;;;;;;4970157;28;20058;-73
2023/01/22 05:53:11;;;;;;;7.15;4.15;;;;;;;;;;4969315;28;20516;-73
2023/01/22 05:55:38;;;;;;;6.90;3.85;;;;;;;;;;4968210;28;20050;-72
2023/01/22 05:58:05;;;;;;;8.85;3.92;;;;;;;;;;4966623;28;20072;-73
2023/01/22 06:00:32;;;;;;;10.75;4.35;;;;;;;;;;4968724;28;20050;-72
2023/01/22 06:03:00;;;;;;;9.35;3.70;;;;;;;;;;4969379;28;20039;-73
2023/01/22 06:05:27;;;;;;;6.60;3.90;;;;;;;;;;4970362;28;20050;-73
2023/01/22 06:07:56;;;;;;;6.35;4.20;;;;;;;;;;4964642;28;20491;-72
2023/01/22 06:10:23;;;;;;;8.88;4.43;;;;;;;;;;4969164;28;20077;-72
2023/01/22 06:12:50;;;;;;;10.48;4.85;;;;;;;;;;4965569;28;20062;-72
2023/01/22 06:15:18;;;;;;;10.43;5.28;;;;;;;;;;4968888;28;20053;-73
2023/01/22 06:17:45;;;;;;;7.72;4.70;;;;;;;;;;4969631;28;20077;-72
2023/01/22 06:20:12;;;;;;;9.93;4.63;;;;;;;;;;4967559;28;20058;-73
2023/01/22 06:22:40;;;;;;;9.23;4.72;;;;;;;;;;4968168;28;20066;-72
2023/01/22 06:25:09;;;;;;;7.82;4.28;;;;;;;;;;4967275;28;20478;-72
2023/01/22 06:27:36;;;;;;;9.15;4.18;;;;;;;;;;4971272;28;20484;-72
2023/01/22 06:30:03;;;;;;;7.72;3.67;;;;;;;;;;4968231;28;20050;-72
2023/01/22 06:32:31;;;;;;;8.90;4.10;;;;;;;;;;4971881;28;20055;-72
2023/01/22 06:34:58;;;;;;;7.53;3.80;;;;;;;;;;4972146;28;20513;-72
2023/01/22 06:37:25;;;;;;;9.60;4.05;;;;;;;;;;4967273;28;20050;-72
2023/01/22 06:39:52;;;;;;;7.30;3.90;;;;;;;;;;4971699;28;20047;-72
2023/01/22 06:42:21;;;;;;;7.57;4.22;;;;;;;;;;4971249;28;20058;-72
2023/01/22 06:44:49;;;;;;;9.27;3.97;;;;;;;;;;4971162;28;20525;-73
2023/01/22 06:47:16;;;;;;;8.15;3.35;;;;;;;;;;4971855;28;20074;-72
2023/01/22 06:49:44;;;;;;;5.85;3.45;;;;;;;;;;4965935;28;20054;-73
2023/01/22 06:52:11;;;;;;;7.82;3.63;;;;;;;;;;4967745;28;20059;-73
2023/01/22 06:54:38;;;;;;;6.45;3.17;;;;;;;;;;4968101;28;20054;-72
2023/01/22 06:57:05;;;;;;;7.25;3.22;;;;;;;;;;4969267;28;20481;-72
2023/01/22 06:59:34;;;;;;;11.45;3.13;;;;;;;;;;4968841;28;20058;-72
2023/01/22 07:02:01;;;;;;;7.40;3.53;;;;;;;;;;4968308;28;20303;-73
2023/01/22 07:04:28;;;;;;;17.08;4.65;;;;;;;;;;4972279;28;20062;-73
2023/01/22 07:06:56;;;;;;;5.90;3.00;;;;;;;;;;4958999;28;20069;-72
2023/01/22 07:09:23;;;;;;;4.63;3.08;;;;;;;;;;4972544;28;20491;-72
2023/01/22 07:11:50;;;;;;;9.10;3.42;;;;;;;;;;4972822;28;20697;-72
2023/01/22 07:14:17;;;;;;;8.70;3.75;;;;;;;;;;4968625;28;20054;-72
2023/01/22 07:16:46;;;;;;;8.70;3.15;;;;;;;;;;4963471;28;20046;-72
2023/01/22 07:19:13;;;;;;;8.07;3.47;;;;;;;;;;4971171;28;20058;-72
2023/01/22 07:21:40;;;;;;;4.32;3.08;;;;;;;;;;4966461;28;20417;-72
2023/01/22 07:24:08;;;;;;;8.85;3.10;;;;;;;;;;4968609;28;20051;-73
2023/01/22 07:26:35;;;;;;;8.45;3.85;;;;;;;;;;4965671;28;20486;-73
2023/01/22 07:29:02;;;;;;;13.27;3.15;;;;;;;;;;4970105;28;20053;-72
2023/01/22 07:31:30;;;;;;;7.70;3.58;;;;;;;;;;4968375;28;20056;-73
2023/01/22 07:33:58;;;;;;;8.05;3.47;;;;;;;;;;4969807;28;20061;-72
2023/01/22 07:36:25;;;;;;;9.02;3.00;;;;;;;;;;4962727;28;20066;-72
2023/01/22 07:38:53;;;;;;;9.98;3.97;;;;;;;;;;4966473;28;20055;-72
2023/01/22 07:41:20;;;;;;;10.80;4.05;;;;;;;;;;4973098;28;20062;-72
2023/01/22 07:43:48;;;;;;;17.02;4.00;;;;;;;;;;4969806;28;20047;-72
2023/01/22 07:46:16;;;;;;;6.22;3.60;;;;;;;;;;4966252;28;20094;-72
2023/01/22 07:48:43;;;;;;;5.07;2.97;;;;;;;;;;4967944;28;20082;-72
2023/01/22 07:51:11;;;;;;;5.53;3.55;;;;;;;;;;4972697;28;20069;-72
2023/01/22 07:53:39;;;;;;;6.13;3.28;;;;;;;;;;4967034;28;20047;-72
2023/01/22 07:56:06;;;;;;;6.70;3.10;;;;;;;;;;4968300;28;20058;-72
2023/01/22 07:58:34;;;;;;;5.68;2.92;;;;;;;;;;4965799;28;20082;-72
2023/01/22 08:01:01;;;;;;;12.02;3.50;;;;;;;;;;4965403;28;20055;-72
2023/01/22 08:03:32;;;;;;;8.95;3.22;;;;;;;;;;4966573;28;20054;-73
2023/01/22 08:06:00;;;;;;;5.60;2.95;;;;;;;;;;4969034;28;20134;-73
2023/01/22 08:08:28;;;;;;;6.13;3.15;;;;;;;;;;4969924;28;20055;-73
2023/01/22 08:10:59;;;;;;;8.10;3.10;;;;;;;;;;4967568;28;20062;-73
2023/01/22 08:13:26;;;;;;;8.07;3.05;;;;;;;;;;4967099;28;20106;-73
2023/01/22 08:15:54;;;;;;;11.15;4.07;;;;;;;;;;4968708;28;20047;-73
2023/01/22 08:18:21;;;;;;;9.52;2.63;;;;;;;;;;4969060;28;20133;-72
2023/01/22 08:20:49;;;;;;;5.60;3.30;;;;;;;;;;4967775;28;20585;-72
2023/01/22 08:23:16;;;;;;;6.80;3.00;;;;;;;;;;4970890;28;20054;-72
2023/01/22 08:25:45;;;;;;;8.55;3.08;;;;;;;;;;4970511;28;20482;-72
2023/01/22 08:28:12;;;;;;;5.30;3.03;;;;;;;;;;4972739;28;20058;-72
2023/01/22 08:30:39;;;;;;;6.78;2.67;;;;;;;;;;4964133;28;20074;-72
2023/01/22 08:33:07;;;;;;;5.85;2.60;;;;;;;;;;4970317;28;20151;-72
2023/01/22 08:35:34;;;;;;;7.63;2.85;;;;;;;;;;4969200;28;20043;-72
2023/01/22 08:38:01;;;;;;;6.47;2.50;;;;;;;;;;4969899;28;20085;-72
2023/01/22 08:40:29;;;;;;;7.10;2.70;;;;;;;;;;4968546;28;20065;-72
2023/01/22 08:42:57;;;;;;;6.10;2.33;;;;;;;;;;4967388;28;20054;-72
2023/01/22 08:45:24;;;;;;;5.38;2.70;;;;;;;;;;4965451;28;20054;-72
2023/01/22 08:47:57;;;;;;;6.30;2.80;;;;;;;;;;4968330;28;20063;-73
2023/01/22 08:50:24;;;;;;;8.67;3.10;;;;;;;;;;4963856;28;20132;-72
2023/01/22 08:52:52;;;;;;;7.05;2.85;;;;;;;;;;4970406;28;20753;-72
2023/01/22 08:55:19;;;;;;;7.13;2.95;;;;;;;;;;4969984;28;20050;-73
2023/01/22 08:57:52;;;;;;;8.98;3.20;;;;;;;;;;4968819;28;20065;-72
2023/01/22 09:00:22;;;;;;;8.82;2.67;;;;;;;;;;4970617;28;20101;-73
2023/01/22 09:02:49;;;;;;;6.05;3.08;;;;;;;;;;4966326;28;20055;-72
2023/01/22 09:05:16;;;;;;;7.35;3.55;;;;;;;;;;4958800;28;20058;-73
2023/01/22 09:07:43;;;;;;;10.25;2.95;;;;;;;;;;4962563;28;21833;-73
2023/01/22 09:10:12;;;;;;;8.35;3.20;;;;;;;;;;4958095;28;20057;-73
2023/01/22 09:12:39;;;;;;;6.75;3.15;;;;;;;;;;4967608;28;20070;-73
2023/01/22 09:15:07;;;;;;;11.20;2.67;;;;;;;;;;4963601;28;20061;-73
2023/01/22 09:17:36;;;;;;;6.70;2.50;;;;;;;;;;4965898;28;20254;-73
2023/01/22 09:20:03;;;;;;;7.18;2.80;;;;;;;;;;4967972;28;20074;-72
2023/01/22 09:22:31;;;;;;;10.98;2.35;;;;;;;;;;4965889;28;20133;-72
2023/01/22 09:24:59;;;;;;;7.35;3.30;;;;;;;;;;4965509;28;20111;-73
2023/01/22 09:27:26;;;;;;;8.60;2.70;;;;;;;;;;4968040;28;20118;-73
2023/01/22 09:29:53;;;;;;;5.07;2.55;;;;;;;;;;4962784;28;20498;-72
2023/01/22 09:32:20;;;;;;;10.32;2.88;;;;;;;;;;4962108;28;20054;-73
2023/01/22 09:34:49;;;;;;;5.75;2.15;;;;;;;;;;4966056;28;20047;-73
2023/01/22 09:37:16;;;;;;;7.22;2.85;;;;;;;;;;4966087;28;20085;-72
2023/01/22 09:39:43;;;;;;;6.95;3.22;;;;;;;;;;4967776;28;20494;-72
2023/01/22 09:42:13;;;;;;;10.45;3.40;;;;;;;;;;4966391;28;20057;-72
2023/01/22 09:44:42;;;;;;;9.55;5.15;;;;;;;;;;4965121;28;20050;-73
2023/01/22 09:47:12;;;;;;;8.68;4.60;;;;;;;;;;4964233;28;20054;-72
2023/01/22 09:49:46;;;;;;;7.18;3.35;;;;;;;;;;4962688;28;20051;-72
2023/01/22 09:52:14;;;;;;;9.60;3.28;;;;;;;;;;4963208;28;20405;-72
2023/01/22 09:54:42;;;;;;;6.20;2.90;;;;;;;;;;4968061;28;20051;-73
2023/01/22 09:57:14;;;;;;;9.40;3.40;;;;;;;;;;4965851;28;20410;-72
2023/01/22 09:59:45;;;;;;;7.50;3.08;;;;;;;;;;4967015;28;20178;-72
2023/01/22 10:02:20;;;;;;;9.15;3.17;;;;;;;;;;4969128;28;20494;-73
2023/01/22 10:04:49;;;;;;;6.30;2.92;;;;;;;;;;4968723;28;20055;-72
2023/01/22 10:07:20;;;;;;;9.90;3.05;;;;;;;;;;4963468;28;20372;-72
2023/01/22 10:09:51;;;;;;;6.50;2.88;;;;;;;;;;4967684;28;20055;-72
2023/01/22 10:12:19;;;;;;;8.05;3.17;;;;;;;;;;4969679;28;20495;-72
2023/01/22 10:14:46;;;;;;;10.23;3.25;;;;;;;;;;4967740;28;20051;-72
2023/01/22 10:17:17;;;;;;;9.48;3.20;;;;;;;;;;4968336;28;20047;-72
2023/01/22 10:19:46;;;;;;;7.50;2.90;;;;;;;;;;4966245;28;20379;-73
2023/01/22 10:22:16;;;;;;;12.80;3.75;;;;;;;;;;4963040;28;20054;-72
2023/01/22 10:24:45;;;;;;;10.48;3.70;;;;;;;;;;4968381;28;20054;-73
2023/01/22 10:27:12;;;;;;;10.65;3.70;;;;;;;;;;4967773;28;20562;-73
2023/01/22 10:29:40;;;;;;;15.93;4.55;;;;;;;;;;4967772;28;20055;-72
2023/01/22 10:32:16;;;;;;;9.15;3.78;;;;;;;;;;4965601;28;20051;-73
2023/01/22 10:34:44;;;;;;;9.35;3.95;;;;;;;;;;4975780;28;20063;-73
2023/01/22 10:37:14;;;;;;;8.30;3.70;;;;;;;;;;4964977;28;20043;-73
2023/01/22 10:39:42;;;;;;;7.85;3.55;;;;;;;;;;4962644;28;20050;-73
2023/01/22 10:42:16;;;;;;;9.50;3.47;;;;;;;;;;4961556;28;20051;-72
2023/01/22 10:44:44;;;;;;;9.48;3.55;;;;;;;;;;4967884;28;20054;-73
2023/01/22 10:47:19;;;;;;;11.70;3.85;;;;;;;;;;4958907;28;20042;-72
2023/01/22 10:49:46;;;;;;;6.28;3.45;;;;;;;;;;4966981;28;21428;-72
2023/01/22 10:52:21;;;;;;;9.57;3.45;;;;;;;;;;4971078;28;20437;-72
2023/01/22 10:54:53;;;;;;;9.45;4.10;;;;;;;;;;4964333;28;20059;-73
2023/01/22 10:57:23;;;;;;;8.88;4.00;;;;;;;;;;4967548;28;20043;-72
2023/01/22 10:59:51;;;;;;;12.00;3.40;;;;;;;;;;4963525;28;20494;-73
2023/01/22 11:02:21;;;;;;;7.72;3.85;;;;;;;;;;4963234;28;20054;-72
2023/01/22 11:04:48;;;;;;;10.93;5.15;;;;;;;;;;4968176;28;20062;-73
2023/01/22 11:07:18;;;;;;;12.90;4.45;;;;;;;;;;4962753;28;20493;-72
2023/01/22 11:09:47;;;;;;;14.80;5.03;;;;;;;;;;4967423;28;20062;-72
2023/01/22 11:12:17;;;;;;;9.38;3.88;;;;;;;;;;4966351;28;20395;-72
2023/01/22 11:14:46;;;;;;;7.70;3.15;;;;;;;;;;4971895;28;20051;-72
2023/01/22 11:17:17;;;;;;;6.65;3.92;;;;;;;;;;4972326;28;20061;-73
2023/01/22 11:19:45;;;;;;;10.93;3.17;;;;;;;;;;4970710;28;20066;-73
2023/01/22 11:22:16;;;;;;;8.85;3.45;;;;;;;;;;4970930;28;20054;-72
2023/01/22 11:24:46;;;;;;;8.80;3.55;;;;;;;;;;4969734;28;20082;-72
2023/01/22 11:27:21;;;;;;;7.60;3.40;;;;;;;;;;4971699;28;20042;-72
2023/01/22 11:30:03;;;;;;;6.18;3.60;;;;;;;;;;4983184;28;20075;-72
2023/01/22 11:32:42;;;;;;;11.60;3.47;;;;;;;;;;4969499;28;20509;-73
2023/01/22 11:35:17;;;;;;;8.95;3.63;;;;;;;;;;4968098;28;20170;-73
2023/01/22 11:37:50;;;;;;;6.43;3.30;;;;;;;;;;4968964;28;20410;-73
2023/01/22 11:40:23;;;;;;;5.80;3.05;;;;;;;;;;4970859;28;20073;-73
2023/01/22 11:43:00;;;;;;;5.57;3.00;;;;;;;;;;4970867;28;20509;-73
2023/01/22 11:45:41;;;;;;;9.52;3.40;;;;;;;;;;4970409;28;20062;-72
2023/01/22 11:48:16;;;;;;;6.15;3.00;;;;;;;;;;4970475;28;20603;-72
2023/01/22 11:50:45;;;;;;;7.45;3.28;;;;;;;;;;4971288;28;20058;-73
2023/01/22 11:53:25;;;;;;;7.95;3.63;;;;;;;;;;4970409;28;20058;-72
2023/01/22 11:56:02;;;;;;;6.65;4.05;;;;;;;;;;4971797;28;20058;-73
2023/01/22 11:58:34;;;;;;;5.50;3.55;;;;;;;;;;4964382;28;20097;-72
2023/01/22 12:01:09;;;;;;;10.95;3.58;;;;;;;;;;4970547;28;20058;-72
2023/01/22 12:03:45;;;;;;;8.43;3.47;;;;;;;;;;4970656;28;20169;-72
2023/01/22 12:06:19;;;;;;;6.10;3.08;;;;;;;;;;4969471;28;20055;-73
2023/01/22 12:08:54;;;;;;;5.75;3.45;;;;;;;;;;4972744;28;20118;-72
2023/01/22 12:11:27;;;;;;;6.35;3.53;;;;;;;;;;4968764;28;20131;-73
2023/01/22 12:14:19;;;;;;;6.75;3.40;;;;;;;;;;4971055;28;20101;-73
2023/01/22 12:16:52;;;;;;;5.30;3.30;;;;;;;;;;4968057;28;20557;-73
2023/01/22 12:19:30;;;;;;;5.63;3.30;;;;;;;;;;4966661;28;20054;-72
2023/01/22 12:22:00;;;;;;;5.57;3.10;;;;;;;;;;4969068;28;20528;-72
2023/01/22 12:24:30;;;;;;;8.77;3.90;;;;;;;;;;4967399;28;20050;-73
2023/01/22 12:27:00;;;;;;;7.35;3.72;;;;;;;;;;4969340;28;20057;-72
2023/01/22 12:29:30;;;;;;;6.55;3.22;;;;;;;;;;4969791;28;20514;-72
2023/01/22 12:32:03;;;;;;;4.80;3.22;;;;;;;;;;4964534;28;20515;-73
2023/01/22 12:34:33;;;;;;;6.13;3.90;;;;;;;;;;4970321;28;20158;-73
2023/01/22 12:37:01;;;;;;;8.63;3.90;;;;;;;;;;4968207;28;20042;-72
2023/01/22 12:39:30;;;;;;;8.40;3.75;;;;;;;;;;4970394;28;20046;-73
2023/01/22 12:42:03;;;;;;;8.77;3.70;;;;;;;;;;4970213;28;20413;-72
2023/01/22 12:44:35;;;;;;;6.78;3.60;;;;;;;;;;4969767;28;20446;-72
2023/01/22 12:47:07;;;;;;;8.20;3.63;;;;;;;;;;4963311;28;20482;-72
2023/01/22 12:49:44;;;;;;;7.22;3.60;;;;;;;;;;4963425;28;20282;-72
2023/01/22 12:52:25;;;;;;;6.20;3.75;;;;;;;;;;4970440;28;20759;-73
2023/01/22 12:54:54;;;;;;;9.00;3.58;;;;;;;;;;4968207;28;20051;-73
2023/01/22 12:57:24;;;;;;;7.32;3.10;;;;;;;;;;4969002;28;20051;-72
2023/01/22 12:59:52;;;;;;;10.32;4.57;;;;;;;;;;4964179;28;20502;-73
2023/01/22 13:02:37;;;;;;;7.18;4.25;;;;;;;;;;4968898;28;20407;-73
2023/01/22 13:05:13;;;;;;;6.72;3.17;;;;;;;;;;4965041;28;20497;-73
2023/01/22 13:07:41;;;;;;;7.03;3.67;;;;;;;;;;4968066;28;20051;-72
2023/01/22 13:10:23;;;;;;;6.63;3.50;;;;;;;;;;4968371;28;20058;-73
2023/01/22 13:12:51;;;;;;;9.77;4.00;;;;;;;;;;4969862;28;20050;-73
2023/01/22 13:15:20;;;;;;;8.57;3.65;;;;;;;;;;4968547;28;20065;-73
2023/01/22 13:17:52;;;;;;;9.02;3.40;;;;;;;;;;4970881;28;20119;-72
2023/01/22 13:20:20;;;;;;;5.30;3.35;;;;;;;;;;4964839;28;20051;-73
2023/01/22 13:22:47;;;;;;;6.00;3.30;;;;;;;;;;4965710;28;20478;-72
2023/01/22 13:25:23;;;;;;;5.85;3.35;;;;;;;;;;4968233;28;20069;-73
2023/01/22 13:27:50;;;;;;;11.85;4.28;;;;;;;;;;4968618;28;20073;-72
2023/01/22 13:30:19;;;;;;;4.70;3.20;;;;;;;;;;4965980;28;20505;-73
2023/01/22 13:32:46;;;;;;;5.05;2.70;;;;;;;;;;4967574;28;20057;-73
2023/01/22 13:35:16;;;;;;;7.15;2.80;;;;;;;;;;4967428;28;20118;-72
2023/01/22 13:37:44;;;;;;;6.07;3.10;;;;;;;;;;4971067;28;20521;-73
2023/01/22 13:40:13;;;;;;;6.80;2.80;;;;;;;;;;4967867;28;20720;-73
2023/01/22 13:42:44;;;;;;;5.45;2.70;;;;;;;;;;4970238;28;20051;-72
2023/01/22 13:45:15;;;;;;;4.88;2.80;;;;;;;;;;4966602;28;20055;-72
2023/01/22 13:47:43;;;;;;;9.52;3.10;;;;;;;;;;4969749;28;20125;-72
2023/01/22 13:50:20;;;;;;;9.77;2.90;;;;;;;;;;4968697;28;20046;-72
2023/01/22 13:52:49;;;;;;;6.82;3.20;;;;;;;;;;4962177;28;20057;-72
2023/01/22 13:55:18;;;;;;;11.80;3.10;;;;;;;;;;4964824;28;21101;-72
2023/01/22 13:57:45;;;;;;;7.07;3.20;;;;;;;;;;4968144;28;20039;-72
2023/01/22 14:00:26;;;;;;;6.88;3.03;;;;;;;;;;4962744;28;20054;-73
2023/01/22 14:02:53;;;;;;;5.30;3.03;;;;;;;;;;4969887;28;20051;-72
2023/01/22 14:05:23;;;;;;;8.32;3.13;;;;;;;;;;4967122;28;20050;-73
2023/01/22 14:07:50;;;;;;;9.65;2.90;;;;;;;;;;4961097;28;20402;-73
2023/01/22 14:10:20;;;;;;;6.30;2.70;;;;;;;;;;4960555;28;20073;-72
2023/01/22 14:12:47;;;;;;;4.50;3.03;;;;;;;;;;4967908;28;20053;-72
2023/01/22 14:15:15;;;;;;;7.40;3.35;;;;;;;;;;4967483;28;20058;-72
2023/01/22 14:17:43;;;;;;;11.07;3.53;;;;;;;;;;4968860;28;20055;-72
2023/01/22 14:20:10;;;;;;;5.60;3.15;;;;;;;;;;4967211;28;20051;-73
2023/01/22 14:22:39;;;;;;;7.20;3.10;;;;;;;;;;4968722;28;20058;-73
2023/01/22 14:25:07;;;;;;;5.68;3.20;;;;;;;;;;4967470;28;20406;-72
2023/01/22 14:27:42;;;;;;;8.27;3.40;;;;;;;;;;4959236;28;20486;-73
2023/01/22 14:30:13;;;;;;;5.65;3.08;;;;;;;;;;4964582;28;20055;-72
2023/01/22 14:32:40;;;;;;;9.30;3.67;;;;;;;;;;4965583;28;20134;-72
2023/01/22 14:35:08;;;;;;;4.60;3.00;;;;;;;;;;4966869;28;20192;-72
2023/01/22 14:37:35;;;;;;;5.43;3.17;;;;;;;;;;4969565;28;20055;-72
2023/01/22 14:40:04;;;;;;;9.40;3.20;;;;;;;;;;4965520;28;20383;-73
2023/01/22 14:42:31;;;;;;;7.15;3.25;;;;;;;;;;4969113;28;20065;-73
2023/01/22 14:44:58;;;;;;;8.95;3.30;;;;;;;;;;4964222;28;20057;-72
2023/01/22 14:47:25;;;;;;;10.25;3.20;;;;;;;;;;4964676;28;20067;-72
2023/01/22 14:49:53;;;;;;;7.07;3.17;;;;;;;;;;4967594;28;20458;-73
2023/01/22 14:52:20;;;;;;;9.05;3.20;;;;;;;;;;4968005;28;20058;-73
2023/01/22 14:54:47;;;;;;;7.07;3.35;;;;;;;;;;4968279;28;20054;-72
2023/01/22 14:57:16;;;;;;;8.07;3.67;;;;;;;;;;4968590;28;20414;-72